Time;durP1;ratioP1;P1;durP2;ratioP2;P2;SDS_P1;SDS_P2;PMS_P1;PMS_P2;Temp;Humidity;BMP_temperature;BMP_pressure;BME280_temperature;BME280_humidity;BME280_pressure;Samples;Min_cycle;Max_cycle;Signal;HPM_P1;HPM_P2
2022/01/15 00:02:11;;;;;;;23.77;11.70;;;;;;;;;;5094911;28;20377;-56
2022/01/15 00:04:37;;;;;;;26.73;15.10;;;;;;;;;;5094646;28;20024;-54
2022/01/15 00:07:03;;;;;;;24.13;13.50;;;;;;;;;;5094737;28;20024;-51
2022/01/15 00:09:31;;;;;;;28.23;14.10;;;;;;;;;;5094781;28;20032;-51
2022/01/15 00:11:58;;;;;;;20.08;11.43;;;;;;;;;;5094798;28;20046;-50
2022/01/15 00:14:29;;;;;;;20.23;11.48;;;;;;;;;;5094660;28;20469;-50
2022/01/15 00:16:57;;;;;;;18.43;9.80;;;;;;;;;;5094542;28;20028;-50
2022/01/15 00:22:20;;;;;;;27.30;15.48;;;;;;;;;;5072043;28;20071;-52
2022/01/15 00:24:46;;;;;;;21.77;12.38;;;;;;;;;;5072212;28;20025;-51
2022/01/15 00:27:13;;;;;;;26.90;14.88;;;;;;;;;;5071815;28;20074;-51
2022/01/15 00:29:39;;;;;;;26.77;14.80;;;;;;;;;;5071836;28;20055;-53
2022/01/15 00:32:07;;;;;;;28.05;15.77;;;;;;;;;;5071673;28;20513;-51
2022/01/15 00:34:33;;;;;;;25.05;13.70;;;;;;;;;;5071953;28;20020;-51
2022/01/15 00:37:00;;;;;;;25.60;14.77;;;;;;;;;;5072032;28;20037;-51
2022/01/15 00:39:26;;;;;;;24.17;13.10;;;;;;;;;;5071920;28;20115;-52
2022/01/15 00:41:52;;;;;;;26.92;15.60;;;;;;;;;;5071830;28;20035;-52
2022/01/15 00:44:19;;;;;;;24.58;13.70;;;;;;;;;;5071722;28;20064;-52
2022/01/15 00:46:45;;;;;;;27.65;15.10;;;;;;;;;;5071691;28;20079;-51
2022/01/15 00:49:11;;;;;;;18.17;10.82;;;;;;;;;;5071505;28;20024;-52
2022/01/15 00:51:38;;;;;;;19.30;10.90;;;;;;;;;;5071437;28;20041;-52
2022/01/15 00:54:04;;;;;;;18.80;10.55;;;;;;;;;;5071539;28;20028;-52
2022/01/15 00:56:31;;;;;;;24.20;14.20;;;;;;;;;;5071219;28;20534;-53
2022/01/15 00:58:57;;;;;;;21.25;11.13;;;;;;;;;;5084935;28;20042;-52
2022/01/15 01:01:23;;;;;;;21.90;11.75;;;;;;;;;;5093733;28;20095;-51
2022/01/15 01:03:50;;;;;;;18.10;10.85;;;;;;;;;;5093892;28;20051;-51
2022/01/15 01:06:16;;;;;;;19.60;11.23;;;;;;;;;;5093807;28;20027;-51
2022/01/15 01:08:43;;;;;;;29.20;15.90;;;;;;;;;;5093642;28;20028;-51
2022/01/15 01:11:15;;;;;;;28.88;16.23;;;;;;;;;;5093524;28;20036;-51
2022/01/15 01:24:21;;;;;;;28.98;13.60;;;;;;;;;;5093640;28;20465;-52
2022/01/15 01:27:01;;;;;;;31.40;14.52;;;;;;;;;;5093368;28;20028;-52
2022/01/15 01:30:33;;;;;;;29.67;14.93;;;;;;;;;;5093294;28;20047;-52
2022/01/15 01:34:51;;;;;;;29.25;14.75;;;;;;;;;;5093545;28;20056;-51
2022/01/15 01:37:25;;;;;;;32.25;14.35;;;;;;;;;;5093287;28;20020;-51
2022/01/15 01:40:01;;;;;;;36.10;15.95;;;;;;;;;;5093274;28;20449;-52
2022/01/15 01:42:38;;;;;;;29.90;13.13;;;;;;;;;;5093303;28;20035;-52
2022/01/15 01:45:12;;;;;;;33.35;15.57;;;;;;;;;;5093144;28;20035;-52
2022/01/15 01:47:41;;;;;;;43.97;17.13;;;;;;;;;;5093029;28;20044;-52
2022/01/15 01:50:10;;;;;;;38.60;16.00;;;;;;;;;;5093339;28;20094;-51
2022/01/15 01:52:36;;;;;;;44.03;17.70;;;;;;;;;;5093024;28;20474;-52
2022/01/15 01:55:02;;;;;;;37.95;16.63;;;;;;;;;;5093145;28;20101;-52
2022/01/15 01:57:28;;;;;;;29.63;14.23;;;;;;;;;;5092904;28;20028;-51
2022/01/15 01:59:54;;;;;;;32.53;14.63;;;;;;;;;;5093177;28;20063;-51
2022/01/15 02:02:20;;;;;;;24.50;13.10;;;;;;;;;;5092202;28;20033;-52
2022/01/15 02:04:47;;;;;;;28.65;14.63;;;;;;;;;;5093357;28;20518;-52
2022/01/15 02:07:14;;;;;;;26.60;14.25;;;;;;;;;;5092968;28;20024;-51
2022/01/15 02:09:40;;;;;;;25.25;14.20;;;;;;;;;;5093050;28;20097;-51
2022/01/15 02:12:06;;;;;;;32.30;16.20;;;;;;;;;;5092851;28;20389;-52
2022/01/15 02:14:32;;;;;;;31.88;15.30;;;;;;;;;;5093194;28;20100;-52
2022/01/15 02:16:59;;;;;;;27.05;13.15;;;;;;;;;;5091892;28;20048;-52
2022/01/15 02:19:32;;;;;;;27.35;15.50;;;;;;;;;;5092819;28;20099;-51
2022/01/15 02:24:44;;;;;;;23.58;12.65;;;;;;;;;;5093157;28;20427;-51
2022/01/15 02:27:10;;;;;;;27.40;13.98;;;;;;;;;;5095102;28;20027;-51
2022/01/15 02:29:36;;;;;;;26.33;13.05;;;;;;;;;;5096572;28;20059;-52
2022/01/15 02:32:02;;;;;;;36.08;15.25;;;;;;;;;;5096489;28;20505;-50
2022/01/15 02:34:28;;;;;;;34.38;15.80;;;;;;;;;;5096665;28;20024;-51
2022/01/15 02:36:54;;;;;;;27.40;14.15;;;;;;;;;;5096510;28;20032;-51
2022/01/15 02:39:20;;;;;;;24.42;12.13;;;;;;;;;;5096589;28;20016;-52
2022/01/15 02:41:46;;;;;;;31.45;15.55;;;;;;;;;;5096286;28;20144;-52
2022/01/15 02:44:19;;;;;;;27.73;14.27;;;;;;;;;;5096347;28;20070;-51
2022/01/15 02:49:14;;;;;;;28.25;15.23;;;;;;;;;;5096356;28;20429;-52
2022/01/15 02:51:41;;;;;;;26.48;13.98;;;;;;;;;;5095984;28;20486;-51
2022/01/15 02:54:07;;;;;;;26.60;13.68;;;;;;;;;;5094926;28;20048;-52
2022/01/15 02:56:40;;;;;;;25.13;14.00;;;;;;;;;;5096044;28;20027;-51
2022/01/15 02:59:10;;;;;;;32.42;16.10;;;;;;;;;;5096352;28;20062;-50
2022/01/15 03:01:36;;;;;;;27.88;14.40;;;;;;;;;;5095980;28;20510;-51
2022/01/15 03:04:04;;;;;;;30.85;15.45;;;;;;;;;;5095940;28;20038;-50
2022/01/15 03:06:30;;;;;;;24.48;13.52;;;;;;;;;;5096000;28;20470;-51
2022/01/15 03:08:56;;;;;;;26.85;13.82;;;;;;;;;;5095939;28;20111;-51
2022/01/15 03:11:22;;;;;;;25.45;13.80;;;;;;;;;;5095912;28;20493;-51
2022/01/15 03:13:49;;;;;;;29.48;14.27;;;;;;;;;;5095927;28;20035;-50
2022/01/15 03:16:17;;;;;;;25.55;14.43;;;;;;;;;;5095814;28;20027;-50
2022/01/15 03:18:43;;;;;;;25.98;13.63;;;;;;;;;;5095763;28;20477;-50
2022/01/15 03:21:09;;;;;;;23.02;13.38;;;;;;;;;;5095723;28;20081;-50
2022/01/15 03:23:36;;;;;;;20.90;11.48;;;;;;;;;;5095636;28;20028;-51
2022/01/15 03:26:02;;;;;;;20.90;13.15;;;;;;;;;;5095689;28;20028;-51
2022/01/15 03:28:28;;;;;;;22.38;12.27;;;;;;;;;;5095470;28;20044;-51
2022/01/15 03:30:54;;;;;;;20.58;12.05;;;;;;;;;;5095682;28;20020;-51
2022/01/15 03:33:20;;;;;;;22.48;12.55;;;;;;;;;;5095399;28;20465;-52
2022/01/15 03:35:46;;;;;;;22.33;12.88;;;;;;;;;;5095523;28;20020;-51
2022/01/15 03:38:13;;;;;;;21.92;12.27;;;;;;;;;;5094679;28;20024;-50
2022/01/15 03:40:39;;;;;;;25.75;12.98;;;;;;;;;;5095334;28;20089;-49
2022/01/15 03:43:05;;;;;;;21.13;12.65;;;;;;;;;;5095317;28;20024;-51
2022/01/15 03:45:32;;;;;;;20.83;11.80;;;;;;;;;;5095388;28;20025;-51
2022/01/15 03:48:00;;;;;;;20.02;11.52;;;;;;;;;;5095474;28;20024;-51
2022/01/15 03:50:27;;;;;;;25.33;12.85;;;;;;;;;;5095032;28;20436;-52
2022/01/15 03:52:54;;;;;;;23.58;14.10;;;;;;;;;;5094909;28;20031;-50
2022/01/15 03:55:21;;;;;;;21.30;12.15;;;;;;;;;;5094956;28;20027;-51
2022/01/15 03:57:47;;;;;;;19.75;12.13;;;;;;;;;;5094915;28;20531;-52
2022/01/15 04:00:15;;;;;;;23.02;12.82;;;;;;;;;;5095081;28;20082;-50
2022/01/15 04:02:41;;;;;;;18.90;12.00;;;;;;;;;;5094801;28;20435;-52
2022/01/15 04:05:08;;;;;;;21.55;12.68;;;;;;;;;;5094950;28;20090;-52
2022/01/15 04:07:34;;;;;;;22.83;13.68;;;;;;;;;;5094913;28;20028;-51
2022/01/15 04:10:03;;;;;;;23.08;12.98;;;;;;;;;;5094705;28;20035;-51
2022/01/15 04:12:29;;;;;;;19.33;12.63;;;;;;;;;;5094792;28;20072;-51
2022/01/15 04:14:57;;;;;;;19.73;12.20;;;;;;;;;;5094634;28;20024;-52
2022/01/15 04:17:25;;;;;;;21.30;12.13;;;;;;;;;;5094674;28;20136;-49
2022/01/15 04:19:51;;;;;;;21.10;12.75;;;;;;;;;;5094533;28;20055;-51
2022/01/15 04:22:17;;;;;;;22.23;12.98;;;;;;;;;;5094501;28;20024;-49
2022/01/15 04:24:43;;;;;;;26.67;14.23;;;;;;;;;;5094309;28;20107;-51
2022/01/15 04:27:12;;;;;;;31.13;17.80;;;;;;;;;;5094229;28;20363;-50
2022/01/15 04:29:39;;;;;;;29.42;16.40;;;;;;;;;;5094120;28;20422;-51
2022/01/15 04:32:07;;;;;;;49.83;28.42;;;;;;;;;;5094146;28;20036;-50
2022/01/15 04:34:33;;;;;;;27.92;15.52;;;;;;;;;;5094215;28;20514;-50
2022/01/15 04:37:06;;;;;;;26.02;15.23;;;;;;;;;;5094255;28;20055;-51
2022/01/15 04:39:33;;;;;;;38.80;20.00;;;;;;;;;;5094167;28;20028;-51
2022/01/15 04:41:59;;;;;;;33.58;17.15;;;;;;;;;;5094253;28;20028;-51
2022/01/15 04:44:25;;;;;;;30.92;16.40;;;;;;;;;;5093988;28;20024;-51
2022/01/15 04:46:52;;;;;;;32.47;16.35;;;;;;;;;;5094030;28;20115;-52
2022/01/15 04:49:19;;;;;;;28.65;16.05;;;;;;;;;;5093481;28;20023;-51
2022/01/15 04:51:45;;;;;;;31.13;16.77;;;;;;;;;;5093322;28;20024;-49
2022/01/15 04:54:11;;;;;;;26.90;14.50;;;;;;;;;;5093881;28;20552;-52
2022/01/15 04:56:39;;;;;;;30.10;15.82;;;;;;;;;;5093755;28;20073;-51
2022/01/15 04:59:05;;;;;;;33.70;17.33;;;;;;;;;;5093792;28;20034;-50
2022/01/15 05:01:31;;;;;;;28.40;15.93;;;;;;;;;;5093791;28;20020;-51
2022/01/15 05:03:57;;;;;;;30.95;16.23;;;;;;;;;;5093677;28;20386;-52
2022/01/15 05:06:26;;;;;;;50.75;24.95;;;;;;;;;;5093793;28;20035;-51
2022/01/15 05:09:01;;;;;;;105.28;44.38;;;;;;;;;;5093903;28;20070;-52
2022/01/15 05:11:31;;;;;;;127.05;51.85;;;;;;;;;;5093908;28;20020;-52
2022/01/15 05:13:58;;;;;;;148.05;62.05;;;;;;;;;;5092613;28;20048;-53
2022/01/15 05:16:24;;;;;;;152.43;69.00;;;;;;;;;;5093837;28;20027;-53
2022/01/15 05:18:50;;;;;;;147.73;63.53;;;;;;;;;;5093945;28;20058;-52
2022/01/15 05:21:16;;;;;;;173.63;70.05;;;;;;;;;;5093433;28;20038;-53
2022/01/15 05:23:42;;;;;;;155.90;64.38;;;;;;;;;;5093507;28;20028;-52
2022/01/15 05:26:10;;;;;;;158.30;62.05;;;;;;;;;;5093433;28;20489;-52
2022/01/15 05:28:36;;;;;;;105.30;43.58;;;;;;;;;;5093402;28;20052;-52
2022/01/15 05:31:02;;;;;;;96.40;40.65;;;;;;;;;;5093414;28;20020;-52
2022/01/15 05:33:28;;;;;;;100.00;41.72;;;;;;;;;;5093314;28;20474;-52
2022/01/15 05:35:54;;;;;;;94.03;41.80;;;;;;;;;;5093192;28;20020;-52
2022/01/15 05:38:20;;;;;;;89.97;39.08;;;;;;;;;;5093460;28;20466;-52
2022/01/15 05:40:46;;;;;;;79.45;37.38;;;;;;;;;;5093422;28;20048;-51
2022/01/15 05:43:12;;;;;;;69.60;34.45;;;;;;;;;;5093310;28;20024;-50
2022/01/15 05:45:41;;;;;;;82.43;38.03;;;;;;;;;;5093333;28;20475;-50
2022/01/15 05:48:07;;;;;;;112.35;48.22;;;;;;;;;;5093097;28;20024;-50
2022/01/15 05:50:33;;;;;;;154.98;64.25;;;;;;;;;;5093241;28;20444;-51
2022/01/15 05:52:59;;;;;;;201.65;84.38;;;;;;;;;;5093074;28;20067;-50
2022/01/15 05:55:27;;;;;;;182.60;76.32;;;;;;;;;;5093040;28;20044;-50
2022/01/15 05:57:53;;;;;;;167.98;71.68;;;;;;;;;;5093341;28;20152;-51
2022/01/15 06:00:19;;;;;;;115.03;54.40;;;;;;;;;;5092269;28;20033;-51
2022/01/15 06:02:46;;;;;;;106.88;50.58;;;;;;;;;;5096526;28;20102;-50
2022/01/15 06:05:14;;;;;;;94.22;43.20;;;;;;;;;;5097157;28;20530;-51
2022/01/15 06:07:40;;;;;;;85.10;40.55;;;;;;;;;;5097044;28;20036;-51
2022/01/15 06:10:06;;;;;;;69.38;34.83;;;;;;;;;;5097046;28;20016;-51
2022/01/15 06:12:41;;;;;;;65.63;33.10;;;;;;;;;;5096971;28;20067;-50
2022/01/15 06:15:07;;;;;;;70.82;35.22;;;;;;;;;;5097048;28;20264;-51
2022/01/15 06:17:33;;;;;;;66.53;32.33;;;;;;;;;;5096926;28;20031;-52
2022/01/15 06:19:59;;;;;;;61.45;30.40;;;;;;;;;;5096987;28;20047;-51
2022/01/15 06:22:26;;;;;;;58.17;30.40;;;;;;;;;;5096810;28;20089;-51
2022/01/15 06:24:52;;;;;;;68.82;32.97;;;;;;;;;;5096739;28;20028;-52
2022/01/15 06:27:19;;;;;;;77.38;35.03;;;;;;;;;;5096941;28;20032;-51
2022/01/15 06:29:45;;;;;;;85.95;39.00;;;;;;;;;;5096855;28;20064;-51
2022/01/15 06:32:11;;;;;;;82.35;38.53;;;;;;;;;;5096542;28;20028;-51
2022/01/15 06:34:37;;;;;;;77.35;36.50;;;;;;;;;;5096648;28;20044;-51
2022/01/15 06:37:04;;;;;;;72.43;34.00;;;;;;;;;;5096452;28;20068;-51
2022/01/15 06:39:31;;;;;;;61.15;31.15;;;;;;;;;;5096703;28;20107;-52
2022/01/15 06:41:57;;;;;;;51.10;27.35;;;;;;;;;;5096453;28;20019;-51
2022/01/15 06:44:23;;;;;;;48.92;25.73;;;;;;;;;;5096555;28;20081;-51
2022/01/15 06:46:49;;;;;;;46.35;24.95;;;;;;;;;;5096467;28;20358;-51
2022/01/15 06:49:15;;;;;;;45.67;26.02;;;;;;;;;;5096314;28;20032;-51
2022/01/15 06:51:41;;;;;;;40.75;23.63;;;;;;;;;;5096276;28;20027;-52
2022/01/15 06:54:07;;;;;;;53.20;24.73;;;;;;;;;;5096220;28;20111;-51
2022/01/15 06:56:34;;;;;;;46.83;24.40;;;;;;;;;;5096369;28;20028;-51
2022/01/15 06:59:00;;;;;;;42.97;25.85;;;;;;;;;;5096082;28;20085;-51
2022/01/15 07:01:28;;;;;;;56.67;29.45;;;;;;;;;;5096113;28;20027;-51
2022/01/15 07:03:56;;;;;;;53.85;28.58;;;;;;;;;;5096109;28;20028;-51
2022/01/15 07:06:22;;;;;;;59.50;30.20;;;;;;;;;;5096011;28;20023;-51
2022/01/15 07:08:48;;;;;;;68.82;33.17;;;;;;;;;;5096194;28;20020;-51
2022/01/15 07:11:15;;;;;;;86.25;40.88;;;;;;;;;;5095893;28;20059;-50
2022/01/15 07:13:41;;;;;;;93.65;49.13;;;;;;;;;;5095070;28;20377;-51
2022/01/15 07:16:07;;;;;;;110.32;58.33;;;;;;;;;;5095922;28;20077;-52
2022/01/15 07:18:33;;;;;;;91.60;46.05;;;;;;;;;;5095761;28;20062;-51
2022/01/15 07:20:59;;;;;;;100.65;49.92;;;;;;;;;;5095637;28;20020;-51
2022/01/15 07:23:25;;;;;;;108.20;51.85;;;;;;;;;;5095805;28;20024;-52
2022/01/15 07:25:51;;;;;;;115.75;52.35;;;;;;;;;;5095593;28;20052;-52
2022/01/15 07:28:18;;;;;;;116.97;53.05;;;;;;;;;;5095567;28;20502;-52
2022/01/15 07:30:45;;;;;;;104.40;49.65;;;;;;;;;;5095708;28;20062;-52
2022/01/15 07:33:12;;;;;;;103.10;50.85;;;;;;;;;;5095378;28;20562;-52
2022/01/15 07:35:38;;;;;;;101.38;50.45;;;;;;;;;;5095370;28;20021;-52
2022/01/15 07:38:04;;;;;;;98.55;48.50;;;;;;;;;;5095456;28;20031;-53
2022/01/15 07:40:33;;;;;;;81.57;41.88;;;;;;;;;;5095428;28;20031;-52
2022/01/15 07:42:59;;;;;;;83.57;43.25;;;;;;;;;;5095325;28;20020;-52
2022/01/15 07:45:25;;;;;;;107.43;55.08;;;;;;;;;;5095433;28;20051;-52
2022/01/15 07:47:51;;;;;;;94.72;49.97;;;;;;;;;;5094983;28;20034;-51
2022/01/15 07:50:23;;;;;;;115.35;56.95;;;;;;;;;;5095084;28;20024;-51
2022/01/15 07:52:50;;;;;;;138.73;70.90;;;;;;;;;;5094967;28;20126;-51
2022/01/15 07:55:16;;;;;;;109.22;57.80;;;;;;;;;;5095162;28;20024;-52
2022/01/15 07:57:43;;;;;;;70.00;40.22;;;;;;;;;;5095205;28;20024;-51
2022/01/15 08:00:11;;;;;;;63.00;35.03;;;;;;;;;;5094989;28;20363;-51
2022/01/15 08:02:37;;;;;;;58.08;33.85;;;;;;;;;;5094278;28;20470;-51
2022/01/15 08:05:03;;;;;;;56.08;33.63;;;;;;;;;;5094332;28;20069;-51
2022/01/15 08:07:29;;;;;;;61.33;35.17;;;;;;;;;;5094286;28;20459;-51
2022/01/15 08:09:55;;;;;;;65.78;37.30;;;;;;;;;;5091605;28;20072;-52
2022/01/15 08:12:22;;;;;;;85.70;44.63;;;;;;;;;;5094147;28;20031;-52
2022/01/15 08:14:50;;;;;;;111.93;58.33;;;;;;;;;;5092766;28;20519;-52
2022/01/15 08:17:16;;;;;;;125.63;67.35;;;;;;;;;;5091367;28;20024;-52
2022/01/15 08:19:42;;;;;;;112.45;61.15;;;;;;;;;;5094003;28;20381;-53
2022/01/15 08:22:10;;;;;;;77.60;46.13;;;;;;;;;;5093817;28;20016;-53
2022/01/15 08:24:36;;;;;;;77.60;45.58;;;;;;;;;;5091397;28;20467;-47
2022/01/15 08:27:02;;;;;;;80.10;46.08;;;;;;;;;;5093894;28;20032;-47
2022/01/15 08:29:28;;;;;;;79.35;46.60;;;;;;;;;;5093733;28;20547;-48
2022/01/15 08:31:56;;;;;;;80.78;45.97;;;;;;;;;;5093814;28;20031;-56
2022/01/15 08:34:22;;;;;;;87.60;48.22;;;;;;;;;;5094162;28;20055;-56
2022/01/15 08:36:48;;;;;;;93.00;53.38;;;;;;;;;;5093788;28;20458;-55
2022/01/15 08:39:14;;;;;;;103.03;56.45;;;;;;;;;;5093570;28;20290;-54
2022/01/15 08:41:47;;;;;;;110.43;58.25;;;;;;;;;;5093692;28;20027;-55
2022/01/15 08:44:13;;;;;;;122.63;66.30;;;;;;;;;;5093560;28;20024;-56
2022/01/15 08:46:42;;;;;;;126.85;67.38;;;;;;;;;;5093708;28;20028;-54
2022/01/15 08:49:08;;;;;;;115.07;62.92;;;;;;;;;;5093508;28;20067;-54
2022/01/15 08:51:34;;;;;;;99.47;54.03;;;;;;;;;;5093434;28;20024;-54
2022/01/15 08:54:00;;;;;;;94.50;51.28;;;;;;;;;;5093370;28;20028;-55
2022/01/15 08:56:26;;;;;;;81.95;43.15;;;;;;;;;;5093457;28;20081;-56
2022/01/15 08:58:52;;;;;;;75.70;41.08;;;;;;;;;;5093242;28;20558;-57
2022/01/15 09:01:19;;;;;;;76.32;41.22;;;;;;;;;;5093178;28;20073;-56
2022/01/15 09:03:45;;;;;;;62.70;34.90;;;;;;;;;;5093242;28;20024;-56
2022/01/15 09:06:12;;;;;;;53.50;29.45;;;;;;;;;;5093070;28;20059;-57
2022/01/15 09:08:38;;;;;;;50.50;28.17;;;;;;;;;;5093319;28;20016;-54
2022/01/15 09:11:04;;;;;;;47.60;25.42;;;;;;;;;;5093232;28;20016;-55
2022/01/15 09:13:30;;;;;;;39.45;24.33;;;;;;;;;;5093240;28;20043;-57
2022/01/15 09:15:57;;;;;;;43.30;25.55;;;;;;;;;;5090535;28;20023;-43
2022/01/15 09:18:23;;;;;;;45.47;27.30;;;;;;;;;;5093016;28;20043;-44
2022/01/15 09:20:52;;;;;;;42.50;26.38;;;;;;;;;;5093099;28;20016;-44
2022/01/15 09:23:18;;;;;;;59.03;31.50;;;;;;;;;;5093250;28;20024;-47
2022/01/15 09:25:44;;;;;;;68.28;39.70;;;;;;;;;;5093221;28;20030;-52
2022/01/15 09:30:55;;;;;;;57.88;34.92;;;;;;;;;;5093057;28;20035;-48
2022/01/15 09:33:21;;;;;;;40.83;26.85;;;;;;;;;;5092681;28;20031;-50
2022/01/15 09:35:47;;;;;;;36.15;22.98;;;;;;;;;;5092262;28;20089;-48
2022/01/15 09:38:15;;;;;;;43.63;25.05;;;;;;;;;;5092877;28;20020;-52
2022/01/15 09:40:46;;;;;;;49.58;30.30;;;;;;;;;;5092800;28;20030;-46
2022/01/15 09:43:13;;;;;;;59.55;35.00;;;;;;;;;;5093048;28;20016;-46
2022/01/15 09:45:39;;;;;;;42.35;27.15;;;;;;;;;;5092767;28;20031;-46
2022/01/15 09:48:07;;;;;;;42.40;28.10;;;;;;;;;;5092569;28;20016;-47
2022/01/15 09:50:36;;;;;;;47.17;30.00;;;;;;;;;;5092731;28;20073;-49
2022/01/15 09:53:02;;;;;;;49.25;30.42;;;;;;;;;;5092802;28;20464;-50
2022/01/15 09:55:29;;;;;;;48.58;31.33;;;;;;;;;;5068518;28;20042;-46
2022/01/15 09:57:55;;;;;;;50.17;33.95;;;;;;;;;;5061691;28;20132;-46
2022/01/15 10:00:22;;;;;;;47.33;32.50;;;;;;;;;;5061477;28;20031;-46
2022/01/15 10:02:49;;;;;;;42.85;29.55;;;;;;;;;;5061811;28;20016;-46
2022/01/15 10:05:16;;;;;;;43.65;30.77;;;;;;;;;;5061948;28;20033;-46
2022/01/15 10:07:59;;;;;;;32.35;23.35;;;;;;;;;;5062919;28;20028;-46
2022/01/15 10:10:26;;;;;;;33.53;24.27;;;;;;;;;;5061747;28;20062;-45
2022/01/15 10:12:53;;;;;;;40.42;24.13;;;;;;;;;;5061683;28;20062;-45
2022/01/15 10:15:19;;;;;;;27.02;20.33;;;;;;;;;;5061475;28;20032;-47
2022/01/15 10:17:45;;;;;;;24.60;18.15;;;;;;;;;;5061564;28;20613;-46
2022/01/15 10:20:13;;;;;;;54.22;19.25;;;;;;;;;;5061530;28;20035;-49
2022/01/15 10:22:44;;;;;;;29.90;18.02;;;;;;;;;;5062436;28;20398;-49
2022/01/15 10:25:14;;;;;;;29.05;17.60;;;;;;;;;;5061583;28;20440;-50
2022/01/15 10:27:43;;;;;;;30.02;18.65;;;;;;;;;;5079196;28;20024;-47
2022/01/15 10:30:09;;;;;;;31.05;21.65;;;;;;;;;;5092797;28;20036;-46
2022/01/15 10:32:39;;;;;;;32.15;22.02;;;;;;;;;;5092880;28;20020;-46
2022/01/15 10:35:15;;;;;;;27.75;19.33;;;;;;;;;;5092928;28;20020;-46
2022/01/15 10:38:08;;;;;;;29.48;19.42;;;;;;;;;;5093029;28;20028;-47
2022/01/15 10:40:40;;;;;;;28.75;18.92;;;;;;;;;;5090694;28;20039;-48
2022/01/15 10:43:06;;;;;;;34.67;22.17;;;;;;;;;;5092675;28;20026;-47
2022/01/15 10:45:34;;;;;;;37.30;20.98;;;;;;;;;;5092807;28;20033;-51
2022/01/15 10:48:02;;;;;;;28.13;18.88;;;;;;;;;;5094702;28;20363;-46
2022/01/15 10:50:31;;;;;;;42.10;24.13;;;;;;;;;;5096490;28;20095;-47
2022/01/15 10:52:57;;;;;;;38.33;20.77;;;;;;;;;;5096210;28;20119;-46
2022/01/15 10:55:25;;;;;;;99.90;26.80;;;;;;;;;;5096172;28;20145;-48
2022/01/15 10:57:59;;;;;;;53.10;28.58;;;;;;;;;;5095997;28;20048;-46
2022/01/15 11:00:29;;;;;;;58.38;30.90;;;;;;;;;;5095827;28;20036;-46
2022/01/15 11:02:58;;;;;;;52.50;26.63;;;;;;;;;;5095725;28;20076;-46
2022/01/15 11:05:35;;;;;;;32.05;16.73;;;;;;;;;;5095148;28;20064;-46
2022/01/15 11:08:17;;;;;;;27.27;17.02;;;;;;;;;;5095285;28;20024;-48
2022/01/15 11:10:49;;;;;;;30.85;18.27;;;;;;;;;;5095344;28;20024;-46
2022/01/15 11:13:16;;;;;;;26.65;14.25;;;;;;;;;;5095408;28;20043;-46
2022/01/15 11:15:44;;;;;;;32.03;17.70;;;;;;;;;;5095371;28;20012;-46
2022/01/15 11:18:14;;;;;;;23.58;13.95;;;;;;;;;;5095376;28;20031;-47
2022/01/15 11:20:44;;;;;;;31.20;18.52;;;;;;;;;;5095121;28;20028;-46
2022/01/15 11:23:13;;;;;;;34.45;20.80;;;;;;;;;;5095497;28;20024;-49
2022/01/15 11:25:46;;;;;;;28.67;17.52;;;;;;;;;;5095207;28;20031;-51
2022/01/15 11:28:13;;;;;;;27.40;15.27;;;;;;;;;;5093172;28;20047;-45
2022/01/15 11:30:40;;;;;;;39.10;24.52;;;;;;;;;;5095078;28;20077;-47
2022/01/15 11:33:06;;;;;;;35.13;21.55;;;;;;;;;;5094701;28;20038;-46
2022/01/15 11:35:45;;;;;;;29.20;18.05;;;;;;;;;;5094770;28;20420;-44
2022/01/15 11:38:11;;;;;;;30.33;19.48;;;;;;;;;;5093842;28;20107;-55
2022/01/15 11:40:39;;;;;;;50.58;30.15;;;;;;;;;;5094707;28;20020;-60
2022/01/15 11:43:24;;;;;;;30.67;19.63;;;;;;;;;;5094847;28;20100;-58
2022/01/15 11:45:53;;;;;;;47.45;27.48;;;;;;;;;;5093441;28;20062;-58
2022/01/15 11:48:19;;;;;;;35.97;24.45;;;;;;;;;;5091969;28;20020;-58
2022/01/15 11:50:45;;;;;;;32.97;20.92;;;;;;;;;;5094741;28;20016;-58
2022/01/15 11:53:31;;;;;;;30.02;19.20;;;;;;;;;;5094520;28;20036;-58
2022/01/15 11:56:16;;;;;;;24.77;15.05;;;;;;;;;;5094188;28;20024;-58
2022/01/15 11:58:42;;;;;;;23.23;15.13;;;;;;;;;;5091751;28;20093;-58
2022/01/15 12:01:28;;;;;;;31.80;14.27;;;;;;;;;;5094181;28;20020;-57
2022/01/15 12:04:14;;;;;;;27.40;15.70;;;;;;;;;;5093434;28;20035;-59
2022/01/15 12:06:59;;;;;;;23.70;12.07;;;;;;;;;;5083749;28;20024;-57
2022/01/15 12:09:42;;;;;;;26.33;14.98;;;;;;;;;;5064690;28;20445;-58
2022/01/15 12:14:52;;;;;;;27.27;14.48;;;;;;;;;;5063108;28;20048;-56
2022/01/15 12:17:31;;;;;;;27.50;14.60;;;;;;;;;;5063222;28;20077;-57
2022/01/15 12:20:00;;;;;;;30.13;16.05;;;;;;;;;;5062995;28;20033;-57
2022/01/15 12:22:43;;;;;;;26.60;15.20;;;;;;;;;;5063052;28;20025;-57
2022/01/15 12:25:13;;;;;;;31.60;16.10;;;;;;;;;;5062976;28;20289;-57
2022/01/15 12:27:40;;;;;;;24.60;14.43;;;;;;;;;;5064314;28;20529;-56
2022/01/15 12:30:11;;;;;;;24.25;14.25;;;;;;;;;;5062963;28;20548;-57
2022/01/15 12:32:39;;;;;;;22.17;14.77;;;;;;;;;;5063228;28;20120;-57
2022/01/15 12:35:10;;;;;;;34.78;17.10;;;;;;;;;;5063440;28;20024;-56
2022/01/15 12:37:36;;;;;;;27.98;16.77;;;;;;;;;;5064381;28;20020;-57
2022/01/15 12:40:06;;;;;;;32.28;17.60;;;;;;;;;;5062691;28;20067;-56
2022/01/15 12:42:34;;;;;;;29.05;16.77;;;;;;;;;;5062691;28;20415;-57
2022/01/15 12:45:00;;;;;;;25.70;14.15;;;;;;;;;;5062805;28;20040;-58
2022/01/15 12:47:41;;;;;;;37.25;17.98;;;;;;;;;;5062868;28;20032;-57
2022/01/15 12:50:07;;;;;;;31.50;16.63;;;;;;;;;;5061057;28;20041;-57
2022/01/15 12:52:33;;;;;;;32.38;17.00;;;;;;;;;;5063801;28;20161;-57
2022/01/15 12:55:00;;;;;;;25.73;16.15;;;;;;;;;;5062596;28;20024;-55
2022/01/15 12:57:55;;;;;;;47.38;27.73;;;;;;;;;;5062831;28;20059;-59
2022/01/15 13:00:25;;;;;;;65.93;36.80;;;;;;;;;;5052830;28;20569;-57
2022/01/15 13:02:57;;;;;;;47.22;26.48;;;;;;;;;;5027339;28;20465;-60
2022/01/15 13:05:26;;;;;;;46.70;26.50;;;;;;;;;;5052943;28;20649;-55
2022/01/15 13:08:00;;;;;;;43.95;24.35;;;;;;;;;;5052958;28;20082;-57
2022/01/15 13:11:19;;;;;;;43.95;17.65;;;;;;;;;;5035397;28;20684;-58
2022/01/15 13:13:33;;;;;;;56.17;31.10;;;;;;;;;;5050711;28;20072;-54
2022/01/15 13:16:00;;;;;;;39.00;20.55;;;;;;;;;;5052753;28;20111;-54
2022/01/15 13:18:29;;;;;;;37.38;20.38;;;;;;;;;;5052570;28;20270;-61
2022/01/15 13:20:55;;;;;;;37.55;17.60;;;;;;;;;;5052798;28;20028;-55
2022/01/15 13:23:24;;;;;;;49.17;23.73;;;;;;;;;;5051890;28;20107;-54
2022/01/15 13:25:50;;;;;;;55.72;29.45;;;;;;;;;;5036527;28;20763;-57
2022/01/15 13:28:17;;;;;;;79.97;44.35;;;;;;;;;;5053289;28;20060;-55
2022/01/15 13:30:46;;;;;;;73.75;39.28;;;;;;;;;;5053056;28;20028;-58
2022/01/15 13:33:12;;;;;;;43.45;20.90;;;;;;;;;;5053346;28;20064;-55
2022/01/15 13:35:39;;;;;;;26.42;14.75;;;;;;;;;;5053146;28;20024;-55
2022/01/15 13:38:10;;;;;;;37.08;16.38;;;;;;;;;;5061966;28;20036;-55
2022/01/15 13:40:46;;;;;;;47.80;18.88;;;;;;;;;;5062734;28;20052;-56
2022/01/15 13:43:27;;;;;;;36.47;17.67;;;;;;;;;;5062667;28;20043;-56
2022/01/15 13:46:04;;;;;;;38.55;18.02;;;;;;;;;;5062318;28;20028;-55
2022/01/15 13:48:30;;;;;;;39.67;18.85;;;;;;;;;;5062273;28;20024;-58
2022/01/15 13:53:42;;;;;;;39.50;18.75;;;;;;;;;;5063286;28;20594;-57
2022/01/15 13:56:13;;;;;;;38.80;17.77;;;;;;;;;;5062179;28;20032;-57
2022/01/15 13:58:40;;;;;;;38.77;17.13;;;;;;;;;;5062162;28;20037;-54
2022/01/15 14:01:26;;;;;;;43.22;18.25;;;;;;;;;;5062488;28;20028;-56
2022/01/15 14:03:53;;;;;;;43.47;18.95;;;;;;;;;;5062867;28;20050;-56
2022/01/15 14:06:20;;;;;;;38.47;19.17;;;;;;;;;;5063378;28;20155;-54
2022/01/15 14:08:47;;;;;;;49.40;20.50;;;;;;;;;;5062247;28;20024;-55
2022/01/15 14:11:14;;;;;;;46.88;21.00;;;;;;;;;;5062168;28;20025;-54
2022/01/15 14:13:41;;;;;;;37.53;18.25;;;;;;;;;;5062211;28;20028;-54
2022/01/15 14:16:29;;;;;;;35.83;19.38;;;;;;;;;;5061383;28;20058;-58
2022/01/15 14:19:25;;;;;;;43.78;20.55;;;;;;;;;;5062161;28;20020;-57
2022/01/15 14:21:52;;;;;;;37.70;18.58;;;;;;;;;;5061963;28;20044;-56
2022/01/15 14:24:26;;;;;;;54.95;19.27;;;;;;;;;;5065987;28;20039;-56
2022/01/15 14:26:59;;;;;;;44.38;19.35;;;;;;;;;;5067346;28;20058;-54
2022/01/15 14:29:26;;;;;;;41.50;17.73;;;;;;;;;;5065835;28;20127;-57
2022/01/15 14:31:55;;;;;;;48.33;21.10;;;;;;;;;;5065587;28;20118;-53
2022/01/15 14:34:22;;;;;;;40.45;18.88;;;;;;;;;;5066951;28;20374;-55
2022/01/15 14:36:48;;;;;;;51.53;24.83;;;;;;;;;;5065842;28;20016;-55
2022/01/15 14:39:16;;;;;;;42.97;19.52;;;;;;;;;;5066121;28;20068;-55
2022/01/15 14:41:43;;;;;;;46.75;19.10;;;;;;;;;;5065449;28;20031;-55
2022/01/15 14:44:09;;;;;;;39.15;19.55;;;;;;;;;;5065361;28;20036;-55
2022/01/15 14:46:35;;;;;;;44.45;19.98;;;;;;;;;;5066214;28;20020;-56
2022/01/15 14:49:01;;;;;;;43.78;23.35;;;;;;;;;;5066180;28;20031;-56
2022/01/15 14:51:27;;;;;;;47.58;25.10;;;;;;;;;;5065568;28;20024;-56
2022/01/15 14:53:53;;;;;;;57.30;29.73;;;;;;;;;;5066310;28;20033;-54